sensor_id;sensor_type;location;lat;lon;timestamp;pressure;altitude;pressure_sealevel;temperature;humidity
43298;BME280;28892;55.640;37.532;2023-03-01T00:00:40;97893.28;;;-2.89;46.48
43298;BME280;28892;55.640;37.532;2023-03-01T00:03:06;97889.75;;;-2.88;46.41
43298;BME280;28892;55.640;37.532;2023-03-01T00:05:32;97890.81;;;-2.91;46.38
43298;BME280;28892;55.640;37.532;2023-03-01T00:07:58;97898.69;;;-3.02;46.49
43298;BME280;28892;55.640;37.532;2023-03-01T00:10:24;97894.63;;;-3.38;47.04
43298;BME280;28892;55.640;37.532;2023-03-01T00:12:49;97888.50;;;-3.15;47.92
43298;BME280;28892;55.640;37.532;2023-03-01T00:15:15;97886.59;;;-3.34;46.62
43298;BME280;28892;55.640;37.532;2023-03-01T00:17:41;97893.75;;;-3.27;47.16
43298;BME280;28892;55.640;37.532;2023-03-01T00:20:07;97895.00;;;-3.21;46.93
43298;BME280;28892;55.640;37.532;2023-03-01T00:22:36;97893.38;;;-3.01;46.97
43298;BME280;28892;55.640;37.532;2023-03-01T00:25:03;97899.50;;;-3.23;47.00
43298;BME280;28892;55.640;37.532;2023-03-01T00:27:29;97889.13;;;-3.23;47.24
43298;BME280;28892;55.640;37.532;2023-03-01T00:29:55;97891.53;;;-3.31;46.91
43298;BME280;28892;55.640;37.532;2023-03-01T00:32:20;97888.69;;;-3.49;47.13
43298;BME280;28892;55.640;37.532;2023-03-01T00:34:46;97890.09;;;-3.45;47.34
43298;BME280;28892;55.640;37.532;2023-03-01T00:37:23;97890.84;;;-3.33;47.17
43298;BME280;28892;55.640;37.532;2023-03-01T00:39:49;97890.78;;;-3.22;47.97
43298;BME280;28892;55.640;37.532;2023-03-01T00:42:15;97881.31;;;-3.33;46.89
43298;BME280;28892;55.640;37.532;2023-03-01T00:44:41;97889.00;;;-3.21;47.31
43298;BME280;28892;55.640;37.532;2023-03-01T00:47:07;97888.44;;;-3.25;46.94
43298;BME280;28892;55.640;37.532;2023-03-01T00:49:33;97886.47;;;-3.33;46.83
43298;BME280;28892;55.640;37.532;2023-03-01T00:51:58;97881.72;;;-3.28;47.04
43298;BME280;28892;55.640;37.532;2023-03-01T00:54:24;97884.50;;;-3.62;47.11
43298;BME280;28892;55.640;37.532;2023-03-01T00:56:50;97886.91;;;-3.49;47.79
43298;BME280;28892;55.640;37.532;2023-03-01T00:59:16;97879.00;;;-3.47;47.18
43298;BME280;28892;55.640;37.532;2023-03-01T01:01:41;97875.13;;;-3.53;47.66
43298;BME280;28892;55.640;37.532;2023-03-01T01:04:09;97877.63;;;-3.52;47.58
43298;BME280;28892;55.640;37.532;2023-03-01T01:06:44;97880.16;;;-3.40;47.45
43298;BME280;28892;55.640;37.532;2023-03-01T01:09:12;97871.78;;;-3.44;47.15
43298;BME280;28892;55.640;37.532;2023-03-01T01:11:51;97870.03;;;-3.43;47.50
43298;BME280;28892;55.640;37.532;2023-03-01T01:14:18;97873.81;;;-3.69;47.40
43298;BME280;28892;55.640;37.532;2023-03-01T01:16:44;97881.75;;;-3.82;48.17
43298;BME280;28892;55.640;37.532;2023-03-01T01:19:14;97872.81;;;-3.56;48.26
43298;BME280;28892;55.640;37.532;2023-03-01T01:21:40;97878.81;;;-3.56;47.68
43298;BME280;28892;55.640;37.532;2023-03-01T01:24:08;97885.38;;;-3.73;48.00
43298;BME280;28892;55.640;37.532;2023-03-01T01:26:34;97885.94;;;-3.69;48.55
43298;BME280;28892;55.640;37.532;2023-03-01T01:29:01;97878.31;;;-3.71;48.22
43298;BME280;28892;55.640;37.532;2023-03-01T01:31:28;97883.94;;;-3.44;48.02
43298;BME280;28892;55.640;37.532;2023-03-01T01:33:55;97870.31;;;-3.58;48.10
43298;BME280;28892;55.640;37.532;2023-03-01T01:36:21;97874.38;;;-3.65;48.24
43298;BME280;28892;55.640;37.532;2023-03-01T01:38:47;97883.69;;;-3.62;48.66
43298;BME280;28892;55.640;37.532;2023-03-01T01:41:15;97888.94;;;-3.53;48.11
43298;BME280;28892;55.640;37.532;2023-03-01T01:43:47;97890.47;;;-3.50;48.42
43298;BME280;28892;55.640;37.532;2023-03-01T01:46:28;97890.38;;;-3.60;48.66
43298;BME280;28892;55.640;37.532;2023-03-01T01:49:10;97888.88;;;-3.41;48.93
43298;BME280;28892;55.640;37.532;2023-03-01T01:51:44;97889.34;;;-3.69;48.54
43298;BME280;28892;55.640;37.532;2023-03-01T01:54:24;97885.38;;;-3.73;49.24
43298;BME280;28892;55.640;37.532;2023-03-01T01:57:02;97883.25;;;-4.00;50.54
43298;BME280;28892;55.640;37.532;2023-03-01T01:59:30;97879.63;;;-3.76;49.95
43298;BME280;28892;55.640;37.532;2023-03-01T02:01:59;97888.19;;;-3.76;49.55
43298;BME280;28892;55.640;37.532;2023-03-01T02:04:28;97886.13;;;-3.82;49.42
43298;BME280;28892;55.640;37.532;2023-03-01T02:07:02;97881.69;;;-3.70;49.93
43298;BME280;28892;55.640;37.532;2023-03-01T02:09:30;97883.09;;;-3.99;49.84
43298;BME280;28892;55.640;37.532;2023-03-01T02:11:58;97886.75;;;-3.90;49.99
43298;BME280;28892;55.640;37.532;2023-03-01T02:14:24;97881.41;;;-3.88;50.04
43298;BME280;28892;55.640;37.532;2023-03-01T02:16:50;97867.34;;;-3.74;49.95
43298;BME280;28892;55.640;37.532;2023-03-01T02:30:19;97870.72;;;-3.95;50.66
43298;BME280;28892;55.640;37.532;2023-03-01T02:32:45;97886.22;;;-3.84;50.46
43298;BME280;28892;55.640;37.532;2023-03-01T02:35:15;97882.72;;;-3.94;50.36
43298;BME280;28892;55.640;37.532;2023-03-01T02:37:43;97889.34;;;-3.90;50.66
43298;BME280;28892;55.640;37.532;2023-03-01T02:40:19;97898.13;;;-3.81;51.01
43298;BME280;28892;55.640;37.532;2023-03-01T02:42:53;97881.38;;;-3.77;50.56
43298;BME280;28892;55.640;37.532;2023-03-01T02:45:20;97895.03;;;-3.75;50.54
43298;BME280;28892;55.640;37.532;2023-03-01T02:47:46;97891.56;;;-3.97;50.92
43298;BME280;28892;55.640;37.532;2023-03-01T02:50:33;97885.78;;;-3.89;51.02
43298;BME280;28892;55.640;37.532;2023-03-01T02:53:11;97888.25;;;-3.87;50.76
43298;BME280;28892;55.640;37.532;2023-03-01T02:55:40;97892.47;;;-4.19;51.34
43298;BME280;28892;55.640;37.532;2023-03-01T02:58:07;97889.47;;;-4.03;51.20
43298;BME280;28892;55.640;37.532;2023-03-01T03:00:39;97892.16;;;-3.93;51.23
43298;BME280;28892;55.640;37.532;2023-03-01T03:03:06;97887.25;;;-3.75;50.99
43298;BME280;28892;55.640;37.532;2023-03-01T03:05:33;97898.84;;;-3.90;50.75
43298;BME280;28892;55.640;37.532;2023-03-01T03:08:01;97892.09;;;-4.14;51.14
43298;BME280;28892;55.640;37.532;2023-03-01T03:10:36;97886.81;;;-4.24;51.91
43298;BME280;28892;55.640;37.532;2023-03-01T03:13:05;97893.66;;;-4.35;52.09
43298;BME280;28892;55.640;37.532;2023-03-01T03:15:31;97890.34;;;-4.37;51.97
43298;BME280;28892;55.640;37.532;2023-03-01T03:17:58;97890.38;;;-4.59;52.53
43298;BME280;28892;55.640;37.532;2023-03-01T03:20:26;97903.06;;;-4.33;52.63
43298;BME280;28892;55.640;37.532;2023-03-01T03:22:54;97895.66;;;-4.27;52.25
43298;BME280;28892;55.640;37.532;2023-03-01T03:25:22;97896.66;;;-4.07;51.50
43298;BME280;28892;55.640;37.532;2023-03-01T03:27:51;97893.03;;;-4.15;51.86
43298;BME280;28892;55.640;37.532;2023-03-01T03:30:25;97899.00;;;-4.03;51.49
43298;BME280;28892;55.640;37.532;2023-03-01T03:32:51;97900.56;;;-4.12;51.72
43298;BME280;28892;55.640;37.532;2023-03-01T03:35:26;97902.47;;;-4.14;51.85
43298;BME280;28892;55.640;37.532;2023-03-01T03:37:52;97892.94;;;-4.25;51.87
43298;BME280;28892;55.640;37.532;2023-03-01T03:43:05;97910.50;;;-3.85;51.66
43298;BME280;28892;55.640;37.532;2023-03-01T03:45:32;97919.78;;;-4.26;51.90
43298;BME280;28892;55.640;37.532;2023-03-01T03:48:04;97913.66;;;-4.25;52.53
43298;BME280;28892;55.640;37.532;2023-03-01T03:50:33;97903.56;;;-3.96;51.82
43298;BME280;28892;55.640;37.532;2023-03-01T03:53:04;97918.22;;;-4.06;51.81
43298;BME280;28892;55.640;37.532;2023-03-01T03:55:30;97907.41;;;-4.23;51.84
43298;BME280;28892;55.640;37.532;2023-03-01T03:58:00;97910.63;;;-4.42;52.54
43298;BME280;28892;55.640;37.532;2023-03-01T04:00:37;97915.66;;;-4.29;52.32
43298;BME280;28892;55.640;37.532;2023-03-01T04:03:03;97914.16;;;-4.43;52.62
43298;BME280;28892;55.640;37.532;2023-03-01T04:05:29;97909.44;;;-4.49;52.90
43298;BME280;28892;55.640;37.532;2023-03-01T04:07:55;97908.50;;;-4.59;53.17
43298;BME280;28892;55.640;37.532;2023-03-01T04:10:32;97912.28;;;-4.64;53.32
43298;BME280;28892;55.640;37.532;2023-03-01T04:12:58;97916.97;;;-4.80;53.79
43298;BME280;28892;55.640;37.532;2023-03-01T04:15:27;97923.06;;;-4.47;53.51
43298;BME280;28892;55.640;37.532;2023-03-01T04:17:54;97926.50;;;-4.69;53.47
43298;BME280;28892;55.640;37.532;2023-03-01T04:20:27;97922.63;;;-4.64;53.69
43298;BME280;28892;55.640;37.532;2023-03-01T04:23:02;97930.03;;;-4.59;53.63
43298;BME280;28892;55.640;37.532;2023-03-01T04:25:38;97934.38;;;-4.71;53.43
43298;BME280;28892;55.640;37.532;2023-03-01T04:28:04;97928.00;;;-4.67;53.19
43298;BME280;28892;55.640;37.532;2023-03-01T04:30:30;97930.97;;;-4.60;53.19
43298;BME280;28892;55.640;37.532;2023-03-01T04:33:05;97938.00;;;-4.51;52.97
43298;BME280;28892;55.640;37.532;2023-03-01T04:35:31;97927.81;;;-4.64;53.37
43298;BME280;28892;55.640;37.532;2023-03-01T04:37:57;97937.66;;;-4.46;52.98
43298;BME280;28892;55.640;37.532;2023-03-01T04:40:23;97930.97;;;-4.37;53.23
43298;BME280;28892;55.640;37.532;2023-03-01T04:42:52;97930.25;;;-4.62;53.68
43298;BME280;28892;55.640;37.532;2023-03-01T04:45:18;97930.59;;;-4.67;53.65
43298;BME280;28892;55.640;37.532;2023-03-01T04:47:45;97941.44;;;-4.84;54.23
43298;BME280;28892;55.640;37.532;2023-03-01T04:50:16;97935.31;;;-4.49;53.80
43298;BME280;28892;55.640;37.532;2023-03-01T04:52:48;97928.59;;;-4.40;53.28
43298;BME280;28892;55.640;37.532;2023-03-01T04:55:14;97928.13;;;-4.34;53.20
43298;BME280;28892;55.640;37.532;2023-03-01T04:57:42;97940.72;;;-4.29;53.15
43298;BME280;28892;55.640;37.532;2023-03-01T05:00:10;97939.78;;;-4.17;52.74
43298;BME280;28892;55.640;37.532;2023-03-01T05:05:14;97937.06;;;-4.61;53.26
43298;BME280;28892;55.640;37.532;2023-03-01T05:07:40;97936.72;;;-4.33;53.14
43298;BME280;28892;55.640;37.532;2023-03-01T05:10:07;97943.19;;;-4.85;53.75
43298;BME280;28892;55.640;37.532;2023-03-01T05:12:32;97950.75;;;-4.70;53.99
43298;BME280;28892;55.640;37.532;2023-03-01T05:14:58;97955.19;;;-4.72;54.37
43298;BME280;28892;55.640;37.532;2023-03-01T05:17:24;97955.44;;;-4.53;54.13
43298;BME280;28892;55.640;37.532;2023-03-01T05:19:49;97949.66;;;-4.56;53.64
43298;BME280;28892;55.640;37.532;2023-03-01T05:22:15;97957.06;;;-4.40;53.47
43298;BME280;28892;55.640;37.532;2023-03-01T05:24:42;97962.16;;;-4.27;53.67
43298;BME280;28892;55.640;37.532;2023-03-01T05:27:07;97964.84;;;-4.17;53.35
43298;BME280;28892;55.640;37.532;2023-03-01T05:29:33;97961.53;;;-4.08;52.90
43298;BME280;28892;55.640;37.532;2023-03-01T05:32:01;97958.84;;;-4.29;52.93
43298;BME280;28892;55.640;37.532;2023-03-01T05:34:31;97952.97;;;-4.31;53.08
43298;BME280;28892;55.640;37.532;2023-03-01T05:36:57;97964.97;;;-4.19;53.40
43298;BME280;28892;55.640;37.532;2023-03-01T05:39:24;97973.69;;;-4.20;52.80
43298;BME280;28892;55.640;37.532;2023-03-01T05:41:58;97968.72;;;-4.35;53.50
43298;BME280;28892;55.640;37.532;2023-03-01T05:44:25;97981.09;;;-4.50;53.31
43298;BME280;28892;55.640;37.532;2023-03-01T05:46:50;97974.59;;;-4.55;53.94
43298;BME280;28892;55.640;37.532;2023-03-01T05:49:16;97982.84;;;-4.27;53.40
43298;BME280;28892;55.640;37.532;2023-03-01T05:51:47;97986.03;;;-4.12;53.18
43298;BME280;28892;55.640;37.532;2023-03-01T05:54:14;97984.84;;;-4.08;52.88
43298;BME280;28892;55.640;37.532;2023-03-01T05:56:42;97988.72;;;-4.02;53.11
43298;BME280;28892;55.640;37.532;2023-03-01T05:59:08;97994.16;;;-4.05;53.33
43298;BME280;28892;55.640;37.532;2023-03-01T06:01:34;97984.63;;;-4.16;52.77
43298;BME280;28892;55.640;37.532;2023-03-01T06:04:00;97992.25;;;-3.92;53.14
43298;BME280;28892;55.640;37.532;2023-03-01T06:06:26;97991.09;;;-3.99;52.62
43298;BME280;28892;55.640;37.532;2023-03-01T06:08:53;97981.88;;;-3.92;52.78
43298;BME280;28892;55.640;37.532;2023-03-01T06:11:19;97982.59;;;-3.79;52.39
43298;BME280;28892;55.640;37.532;2023-03-01T06:13:45;97988.53;;;-3.67;52.45
43298;BME280;28892;55.640;37.532;2023-03-01T06:16:12;97991.88;;;-3.87;52.30
43298;BME280;28892;55.640;37.532;2023-03-01T06:18:38;97990.69;;;-3.72;52.47
43298;BME280;28892;55.640;37.532;2023-03-01T06:21:05;98005.75;;;-3.77;52.38
43298;BME280;28892;55.640;37.532;2023-03-01T06:23:31;97999.16;;;-3.37;51.72
43298;BME280;28892;55.640;37.532;2023-03-01T06:25:57;97997.03;;;-3.32;51.57
43298;BME280;28892;55.640;37.532;2023-03-01T06:28:23;98004.78;;;-3.65;51.95
43298;BME280;28892;55.640;37.532;2023-03-01T06:30:49;98005.16;;;-3.69;52.29
43298;BME280;28892;55.640;37.532;2023-03-01T06:33:15;98006.31;;;-3.62;51.88
43298;BME280;28892;55.640;37.532;2023-03-01T06:35:41;98012.13;;;-3.70;52.01
43298;BME280;28892;55.640;37.532;2023-03-01T06:38:07;98012.88;;;-3.35;51.51
43298;BME280;28892;55.640;37.532;2023-03-01T06:40:35;98012.47;;;-3.74;52.21
43298;BME280;28892;55.640;37.532;2023-03-01T06:43:01;98011.91;;;-3.34;52.31
43298;BME280;28892;55.640;37.532;2023-03-01T06:45:27;98019.31;;;-3.29;51.92
43298;BME280;28892;55.640;37.532;2023-03-01T06:48:05;98008.72;;;-3.38;52.23
43298;BME280;28892;55.640;37.532;2023-03-01T06:50:31;98021.41;;;-3.23;51.90
43298;BME280;28892;55.640;37.532;2023-03-01T06:52:58;98012.50;;;-3.30;51.83
43298;BME280;28892;55.640;37.532;2023-03-01T06:55:24;98005.88;;;-3.02;51.56
43298;BME280;28892;55.640;37.532;2023-03-01T06:58:00;98017.00;;;-2.90;51.37
43298;BME280;28892;55.640;37.532;2023-03-01T07:00:28;98000.88;;;-3.15;51.60
43298;BME280;28892;55.640;37.532;2023-03-01T07:02:55;98000.69;;;-3.02;51.10
43298;BME280;28892;55.640;37.532;2023-03-01T07:05:23;98017.03;;;-2.69;50.44
43298;BME280;28892;55.640;37.532;2023-03-01T07:07:49;98022.34;;;-2.91;50.89
43298;BME280;28892;55.640;37.532;2023-03-01T07:10:14;98020.06;;;-2.63;50.55
43298;BME280;28892;55.640;37.532;2023-03-01T07:12:40;98024.00;;;-2.69;50.44
43298;BME280;28892;55.640;37.532;2023-03-01T07:15:09;98023.59;;;-2.43;50.25
43298;BME280;28892;55.640;37.532;2023-03-01T07:17:35;98024.94;;;-2.49;50.75
43298;BME280;28892;55.640;37.532;2023-03-01T07:20:01;98034.50;;;-2.49;50.67
43298;BME280;28892;55.640;37.532;2023-03-01T07:22:29;98033.22;;;-2.55;50.73
43298;BME280;28892;55.640;37.532;2023-03-01T07:24:55;98035.56;;;-2.52;50.78
43298;BME280;28892;55.640;37.532;2023-03-01T07:27:21;98043.16;;;-2.60;50.96
43298;BME280;28892;55.640;37.532;2023-03-01T07:29:52;98033.53;;;-2.27;50.00
43298;BME280;28892;55.640;37.532;2023-03-01T07:32:18;98045.81;;;-2.29;50.66
43298;BME280;28892;55.640;37.532;2023-03-01T07:34:44;98043.94;;;-2.70;51.09
43298;BME280;28892;55.640;37.532;2023-03-01T07:37:10;98043.59;;;-2.76;51.43
43298;BME280;28892;55.640;37.532;2023-03-01T07:39:36;98049.94;;;-2.69;51.95
43298;BME280;28892;55.640;37.532;2023-03-01T07:42:02;98035.69;;;-2.96;52.10
43298;BME280;28892;55.640;37.532;2023-03-01T07:44:28;98043.34;;;-2.52;51.79
43298;BME280;28892;55.640;37.532;2023-03-01T07:46:54;98049.94;;;-2.69;51.09
43298;BME280;28892;55.640;37.532;2023-03-01T07:49:21;98063.81;;;-2.59;51.63
43298;BME280;28892;55.640;37.532;2023-03-01T07:51:47;98059.84;;;-2.63;51.65
43298;BME280;28892;55.640;37.532;2023-03-01T07:54:13;98051.28;;;-2.54;51.57
43298;BME280;28892;55.640;37.532;2023-03-01T07:57:07;98059.13;;;-2.44;52.19
43298;BME280;28892;55.640;37.532;2023-03-01T07:59:42;98075.66;;;-2.66;52.07
43298;BME280;28892;55.640;37.532;2023-03-01T08:02:17;98061.31;;;-2.49;51.02
43298;BME280;28892;55.640;37.532;2023-03-01T08:04:54;98056.28;;;-2.41;51.99
43298;BME280;28892;55.640;37.532;2023-03-01T08:07:23;98062.47;;;-2.53;51.41
43298;BME280;28892;55.640;37.532;2023-03-01T08:09:48;98063.03;;;-2.28;51.38
43298;BME280;28892;55.640;37.532;2023-03-01T08:12:14;98054.81;;;-2.02;50.54
43298;BME280;28892;55.640;37.532;2023-03-01T08:14:42;98061.28;;;-1.97;50.40
43298;BME280;28892;55.640;37.532;2023-03-01T08:17:08;98059.38;;;-1.85;50.76
43298;BME280;28892;55.640;37.532;2023-03-01T08:19:34;98076.78;;;-1.85;50.16
43298;BME280;28892;55.640;37.532;2023-03-01T08:22:03;98062.06;;;-1.65;49.98
43298;BME280;28892;55.640;37.532;2023-03-01T08:24:29;98054.94;;;-1.63;49.68
43298;BME280;28892;55.640;37.532;2023-03-01T08:26:55;98065.00;;;-1.48;48.98
43298;BME280;28892;55.640;37.532;2023-03-01T08:29:21;98053.56;;;-1.77;50.09
43298;BME280;28892;55.640;37.532;2023-03-01T08:31:48;98075.00;;;-1.44;49.39
43298;BME280;28892;55.640;37.532;2023-03-01T08:34:15;98055.56;;;-1.39;48.87
43298;BME280;28892;55.640;37.532;2023-03-01T08:36:43;98063.28;;;-1.18;48.98
43298;BME280;28892;55.640;37.532;2023-03-01T08:39:14;98070.34;;;0.62;46.73
43298;BME280;28892;55.640;37.532;2023-03-01T08:41:40;98061.66;;;3.08;41.84
43298;BME280;28892;55.640;37.532;2023-03-01T08:44:07;98073.94;;;4.70;38.97
43298;BME280;28892;55.640;37.532;2023-03-01T08:46:36;98067.09;;;5.78;37.08
43298;BME280;28892;55.640;37.532;2023-03-01T08:49:11;98078.53;;;6.00;36.06
43298;BME280;28892;55.640;37.532;2023-03-01T08:51:37;98077.91;;;6.58;35.93
43298;BME280;28892;55.640;37.532;2023-03-01T08:54:11;98071.44;;;7.19;35.59
43298;BME280;28892;55.640;37.532;2023-03-01T08:56:41;98066.56;;;7.66;35.16
43298;BME280;28892;55.640;37.532;2023-03-01T08:59:07;98076.78;;;7.69;32.54
43298;BME280;28892;55.640;37.532;2023-03-01T09:01:33;98076.50;;;6.77;33.06
43298;BME280;28892;55.640;37.532;2023-03-01T09:03:59;98083.19;;;6.95;34.54
43298;BME280;28892;55.640;37.532;2023-03-01T09:06:25;98072.91;;;6.48;34.41
43298;BME280;28892;55.640;37.532;2023-03-01T09:08:51;98067.44;;;7.02;35.08
43298;BME280;28892;55.640;37.532;2023-03-01T09:11:20;98074.25;;;6.74;32.77
43298;BME280;28892;55.640;37.532;2023-03-01T09:13:47;98077.09;;;6.94;34.48
43298;BME280;28892;55.640;37.532;2023-03-01T09:16:14;98095.25;;;5.69;35.86
43298;BME280;28892;55.640;37.532;2023-03-01T09:18:43;98067.72;;;6.55;34.56
43298;BME280;28892;55.640;37.532;2023-03-01T09:21:15;98086.16;;;6.55;35.33
43298;BME280;28892;55.640;37.532;2023-03-01T09:23:43;98083.84;;;6.82;34.78
43298;BME280;28892;55.640;37.532;2023-03-01T09:26:11;98093.13;;;6.26;36.01
43298;BME280;28892;55.640;37.532;2023-03-01T09:28:38;98101.13;;;5.94;35.89
43298;BME280;28892;55.640;37.532;2023-03-01T09:31:04;98076.56;;;6.47;35.05
43298;BME280;28892;55.640;37.532;2023-03-01T09:33:31;98079.31;;;6.09;35.11
43298;BME280;28892;55.640;37.532;2023-03-01T09:36:01;98086.16;;;6.55;34.68
43298;BME280;28892;55.640;37.532;2023-03-01T09:38:27;98088.25;;;6.96;34.85
43298;BME280;28892;55.640;37.532;2023-03-01T09:40:56;98079.84;;;7.08;34.99
43298;BME280;28892;55.640;37.532;2023-03-01T09:46:10;98089.59;;;6.85;34.10
43298;BME280;28892;55.640;37.532;2023-03-01T09:48:50;98090.41;;;7.30;32.80
43298;BME280;28892;55.640;37.532;2023-03-01T09:51:32;98092.00;;;7.74;34.63
43298;BME280;28892;55.640;37.532;2023-03-01T09:54:00;98095.56;;;7.16;32.77
43298;BME280;28892;55.640;37.532;2023-03-01T09:56:37;98093.94;;;7.87;33.01
43298;BME280;28892;55.640;37.532;2023-03-01T10:02:00;98088.56;;;6.87;33.61
43298;BME280;28892;55.640;37.532;2023-03-01T10:08:33;98112.72;;;6.23;34.70
43298;BME280;28892;55.640;37.532;2023-03-01T10:11:03;98116.75;;;5.57;35.58
43298;BME280;28892;55.640;37.532;2023-03-01T10:16:17;98111.41;;;5.66;35.35
43298;BME280;28892;55.640;37.532;2023-03-01T10:18:46;98121.31;;;5.40;35.65
43298;BME280;28892;55.640;37.532;2023-03-01T10:24:36;98120.06;;;4.33;38.55
43298;BME280;28892;55.640;37.532;2023-03-01T10:27:17;98121.69;;;4.34;37.81
43298;BME280;28892;55.640;37.532;2023-03-01T10:32:18;98127.53;;;3.46;38.86
43298;BME280;28892;55.640;37.532;2023-03-01T10:34:44;98126.56;;;3.31;38.26
43298;BME280;28892;55.640;37.532;2023-03-01T10:37:15;98116.88;;;3.23;38.62
43298;BME280;28892;55.640;37.532;2023-03-01T10:42:32;98122.47;;;2.60;39.71
43298;BME280;28892;55.640;37.532;2023-03-01T10:45:29;98131.69;;;2.38;40.16
43298;BME280;28892;55.640;37.532;2023-03-01T10:50:34;98116.16;;;2.45;39.72
43298;BME280;28892;55.640;37.532;2023-03-01T10:53:03;98124.63;;;2.73;39.89
43298;BME280;28892;55.640;37.532;2023-03-01T10:55:34;98124.84;;;2.97;39.19
43298;BME280;28892;55.640;37.532;2023-03-01T10:58:21;98115.19;;;2.89;39.14
43298;BME280;28892;55.640;37.532;2023-03-01T11:04:12;98126.88;;;2.25;40.17
43298;BME280;28892;55.640;37.532;2023-03-01T11:06:58;98134.00;;;1.88;40.90
43298;BME280;28892;55.640;37.532;2023-03-01T11:09:24;98136.06;;;1.76;40.57
43298;BME280;28892;55.640;37.532;2023-03-01T11:11:59;98122.19;;;1.39;41.06
43298;BME280;28892;55.640;37.532;2023-03-01T11:14:29;98129.38;;;1.37;41.33
43298;BME280;28892;55.640;37.532;2023-03-01T11:17:16;98123.06;;;1.48;41.53
43298;BME280;28892;55.640;37.532;2023-03-01T11:20:20;98119.44;;;2.39;41.23
43298;BME280;28892;55.640;37.532;2023-03-01T11:23:17;98099.94;;;2.84;39.79
43298;BME280;28892;55.640;37.532;2023-03-01T11:25:51;98105.56;;;3.22;39.00
43298;BME280;28892;55.640;37.532;2023-03-01T11:28:22;98104.22;;;2.93;38.81
43298;BME280;28892;55.640;37.532;2023-03-01T11:30:55;98115.19;;;2.97;38.53
43298;BME280;28892;55.640;37.532;2023-03-01T11:33:41;98111.31;;;3.51;38.62
43298;BME280;28892;55.640;37.532;2023-03-01T11:36:27;98135.44;;;3.80;37.95
43298;BME280;28892;55.640;37.532;2023-03-01T11:38:55;98116.72;;;3.74;38.06
43298;BME280;28892;55.640;37.532;2023-03-01T11:41:27;98121.28;;;4.14;37.77
43298;BME280;28892;55.640;37.532;2023-03-01T11:44:03;98118.34;;;3.84;37.45
43298;BME280;28892;55.640;37.532;2023-03-01T12:09:38;98137.97;;;3.13;38.71
43298;BME280;28892;55.640;37.532;2023-03-01T12:12:23;98139.66;;;2.71;38.38
43298;BME280;28892;55.640;37.532;2023-03-01T12:18:41;98151.50;;;1.88;39.23
43298;BME280;28892;55.640;37.532;2023-03-01T12:21:00;98143.50;;;1.71;40.13
43298;BME280;28892;55.640;37.532;2023-03-01T12:23:45;98145.78;;;1.66;40.97
43298;BME280;28892;55.640;37.532;2023-03-01T12:26:35;98146.09;;;1.89;40.49
43298;BME280;28892;55.640;37.532;2023-03-01T12:43:10;98144.88;;;1.57;40.41
43298;BME280;28892;55.640;37.532;2023-03-01T12:48:30;98146.84;;;0.91;40.35
43298;BME280;28892;55.640;37.532;2023-03-01T12:51:03;98153.81;;;1.18;40.19
43298;BME280;28892;55.640;37.532;2023-03-01T12:53:35;98161.38;;;0.75;40.06
43298;BME280;28892;55.640;37.532;2023-03-01T12:56:10;98142.47;;;0.91;40.65
43298;BME280;28892;55.640;37.532;2023-03-01T13:08:18;98156.59;;;0.99;41.07
43298;BME280;28892;55.640;37.532;2023-03-01T13:10:51;98138.50;;;0.59;41.65
43298;BME280;28892;55.640;37.532;2023-03-01T13:13:28;98142.41;;;0.45;42.43
43298;BME280;28892;55.640;37.532;2023-03-01T13:19:12;98140.91;;;0.43;43.21
43298;BME280;28892;55.640;37.532;2023-03-01T13:21:44;98126.91;;;0.44;42.66
43298;BME280;28892;55.640;37.532;2023-03-01T13:29:45;98143.56;;;0.33;43.07
43298;BME280;28892;55.640;37.532;2023-03-01T13:35:01;98131.53;;;0.22;44.47
43298;BME280;28892;55.640;37.532;2023-03-01T13:37:35;98137.09;;;0.37;44.16
43298;BME280;28892;55.640;37.532;2023-03-01T13:40:05;98110.13;;;0.08;43.88
43298;BME280;28892;55.640;37.532;2023-03-01T13:42:52;98095.41;;;0.27;43.79
43298;BME280;28892;55.640;37.532;2023-03-01T13:45:39;98131.97;;;0.17;43.87
43298;BME280;28892;55.640;37.532;2023-03-01T13:48:14;98124.06;;;-0.11;44.50
43298;BME280;28892;55.640;37.532;2023-03-01T13:50:53;98122.13;;;-0.09;44.53
43298;BME280;28892;55.640;37.532;2023-03-01T13:53:23;98129.78;;;0.12;44.35
43298;BME280;28892;55.640;37.532;2023-03-01T13:56:10;98131.59;;;0.02;43.97
43298;BME280;28892;55.640;37.532;2023-03-01T13:58:53;98133.22;;;-0.07;44.56
43298;BME280;28892;55.640;37.532;2023-03-01T14:01:29;98128.09;;;-0.26;44.54
43298;BME280;28892;55.640;37.532;2023-03-01T14:03:56;98119.56;;;-0.29;44.51
43298;BME280;28892;55.640;37.532;2023-03-01T14:06:30;98124.44;;;-0.06;43.89
43298;BME280;28892;55.640;37.532;2023-03-01T14:09:10;98113.94;;;-0.44;43.51
43298;BME280;28892;55.640;37.532;2023-03-01T14:19:27;98130.53;;;-0.45;44.36
43298;BME280;28892;55.640;37.532;2023-03-01T14:22:10;98122.56;;;-0.33;44.40
43298;BME280;28892;55.640;37.532;2023-03-01T14:24:46;98098.06;;;-0.60;44.51
43298;BME280;28892;55.640;37.532;2023-03-01T14:27:13;98117.97;;;-0.69;45.07
43298;BME280;28892;55.640;37.532;2023-03-01T14:29:40;98099.84;;;-0.71;44.51
43298;BME280;28892;55.640;37.532;2023-03-01T14:32:20;98099.59;;;-0.77;45.16
43298;BME280;28892;55.640;37.532;2023-03-01T14:34:48;98108.06;;;-1.05;45.70
43298;BME280;28892;55.640;37.532;2023-03-01T14:37:34;98083.28;;;-0.69;44.80
43298;BME280;28892;55.640;37.532;2023-03-01T14:40:02;98100.38;;;-1.06;45.09
43298;BME280;28892;55.640;37.532;2023-03-01T14:42:40;98077.22;;;-1.00;45.90
43298;BME280;28892;55.640;37.532;2023-03-01T14:45:32;98072.03;;;-0.80;45.30
43298;BME280;28892;55.640;37.532;2023-03-01T14:48:08;98076.81;;;-0.95;45.61
43298;BME280;28892;55.640;37.532;2023-03-01T14:50:42;98079.84;;;-0.80;46.09
43298;BME280;28892;55.640;37.532;2023-03-01T15:01:05;98088.34;;;-0.68;46.87
43298;BME280;28892;55.640;37.532;2023-03-01T15:04:00;98077.38;;;-0.91;46.85
43298;BME280;28892;55.640;37.532;2023-03-01T15:06:43;98081.09;;;-0.84;47.79
43298;BME280;28892;55.640;37.532;2023-03-01T15:09:32;98084.22;;;-0.90;47.75
43298;BME280;28892;55.640;37.532;2023-03-01T15:15:26;98083.13;;;-0.78;48.41